createdAt,value
2018-03-17T00:02:03.848Z,96593.01
2018-03-17T00:04:31.539Z,96588.59
2018-03-17T00:06:59.205Z,96591.28
2018-03-17T00:09:27.068Z,96589.10
2018-03-17T00:11:54.757Z,96593.16
2018-03-17T00:14:22.427Z,96597.16
2018-03-17T00:16:50.119Z,96599.91
2018-03-17T00:19:17.804Z,96601.64
2018-03-17T00:21:45.504Z,96597.70
2018-03-17T00:24:13.175Z,96590.98
2018-03-17T00:26:40.868Z,96577.73
2018-03-17T00:29:08.539Z,96583.11
2018-03-17T00:31:36.219Z,96575.81
2018-03-17T00:34:03.924Z,96579.13
2018-03-17T00:36:31.605Z,96579.17
2018-03-17T00:38:59.316Z,96571.87
2018-03-17T00:41:26.995Z,96574.86
2018-03-17T00:43:54.681Z,96576.51
2018-03-17T00:46:22.387Z,96569.48
2018-03-17T00:48:50.063Z,96575.91
2018-03-17T00:51:18.035Z,96578.30
2018-03-17T00:53:45.717Z,96586.05
2018-03-17T00:56:13.398Z,96592.81
2018-03-17T00:58:41.092Z,96596.52
2018-03-17T01:01:08.795Z,96593.68
2018-03-17T01:03:36.505Z,96589.88
2018-03-17T01:06:04.180Z,96594.24
2018-03-17T01:08:31.916Z,96588.80
2018-03-17T01:10:59.588Z,96592.73
2018-03-17T01:13:27.263Z,96598.46
2018-03-17T01:15:54.957Z,96601.69
2018-03-17T01:18:22.628Z,96597.71
2018-03-17T01:20:50.324Z,96598.79
2018-03-17T01:23:17.993Z,96591.31
2018-03-17T01:25:45.820Z,96591.22
2018-03-17T01:28:13.496Z,96588.28
2018-03-17T01:30:41.171Z,96587.67
2018-03-17T01:33:08.872Z,96582.83
2018-03-17T01:35:36.539Z,96579.73
2018-03-17T01:38:04.239Z,96576.46
2018-03-17T01:40:31.903Z,96574.23
2018-03-17T01:42:59.619Z,96569.73
2018-03-17T01:45:27.323Z,96561.70
2018-03-17T01:47:54.992Z,96564.66
2018-03-17T01:50:22.694Z,96564.41
2018-03-17T01:52:50.374Z,96555.63
2018-03-17T01:55:18.072Z,96556.42
2018-03-17T01:57:45.749Z,96553.20
2018-03-17T02:00:13.908Z,96548.08
2018-03-17T02:02:41.758Z,96541.85
2018-03-17T02:05:09.435Z,96535.23
2018-03-17T02:07:37.128Z,96542.89
2018-03-17T02:10:04.801Z,96544.78
2018-03-17T02:12:32.505Z,96550.09
2018-03-17T02:15:00.167Z,96547.24
2018-03-17T02:17:27.895Z,96540.78
2018-03-17T02:19:55.565Z,96536.12
2018-03-17T02:22:23.240Z,96539.09
2018-03-17T02:24:50.936Z,96530.52
2018-03-17T02:27:18.608Z,96530.95
2018-03-17T02:29:46.295Z,96533.52
2018-03-17T02:32:13.969Z,96532.28
2018-03-17T02:34:41.851Z,96526.73
2018-03-17T02:37:09.532Z,96527.77
2018-03-17T02:39:37.196Z,96520.84
2018-03-17T02:42:04.888Z,96523.25
2018-03-17T02:44:32.556Z,96525.91
2018-03-17T02:47:00.246Z,96518.02
2018-03-17T02:49:27.916Z,96513.20
2018-03-17T02:51:55.744Z,96521.29
2018-03-17T02:54:23.428Z,96527.50
2018-03-17T02:56:51.106Z,96521.23
2018-03-17T02:59:18.809Z,96523.04
2018-03-17T03:01:46.488Z,96518.42
2018-03-17T03:04:14.418Z,96517.08
2018-03-17T03:06:42.110Z,96514.27
2018-03-17T03:09:09.779Z,96519.12
2018-03-17T03:11:37.472Z,96523.76
2018-03-17T03:14:05.150Z,96529.02
2018-03-17T03:16:32.846Z,96531.45
2018-03-17T03:19:00.526Z,96520.68
2018-03-17T03:21:28.237Z,96517.44
2018-03-17T03:23:55.905Z,96515.73
2018-03-17T03:26:23.576Z,96519.92
2018-03-17T03:28:51.276Z,96524.48
2018-03-17T03:31:18.969Z,96523.88
2018-03-17T03:33:46.654Z,96532.20
2018-03-17T03:36:14.333Z,96521.68
2018-03-17T03:38:42.054Z,96527.20
2018-03-17T03:41:09.732Z,96525.98
2018-03-17T03:43:37.409Z,96526.41
2018-03-17T03:46:05.104Z,96528.77
2018-03-17T03:48:32.802Z,96532.86
2018-03-17T03:51:02.139Z,96536.84
2018-03-17T03:53:29.824Z,96535.77
2018-03-17T03:55:57.633Z,96534.44
2018-03-17T03:58:25.385Z,96539.36
2018-03-17T04:00:53.056Z,96536.17
2018-03-17T04:03:20.771Z,96532.48
2018-03-17T04:05:48.445Z,96534.76
2018-03-17T04:08:16.146Z,96529.08
2018-03-17T04:10:43.812Z,96532.47
2018-03-17T04:13:11.763Z,96525.67
2018-03-17T04:15:39.435Z,96532.37
2018-03-17T04:18:07.107Z,96526.76
2018-03-17T04:20:34.798Z,96523.15
2018-03-17T04:23:02.483Z,96520.79
2018-03-17T04:25:30.200Z,96523.80
2018-03-17T04:27:58.064Z,96520.05
2018-03-17T04:30:26.054Z,96515.51
2018-03-17T04:32:53.728Z,96512.65
2018-03-17T04:35:21.476Z,96514.72
2018-03-17T04:37:49.167Z,96514.80
2018-03-17T04:40:16.853Z,96514.96
2018-03-17T04:42:44.566Z,96518.11
2018-03-17T04:45:12.240Z,96506.91
2018-03-17T04:47:40.004Z,96512.84
2018-03-17T04:50:07.704Z,96513.05
2018-03-17T04:52:35.403Z,96511.46
2018-03-17T04:55:03.100Z,96508.91
2018-03-17T04:57:30.780Z,96503.30
2018-03-17T04:59:58.473Z,96503.28
2018-03-17T05:02:26.262Z,96510.13
2018-03-17T05:04:54.215Z,96507.88
2018-03-17T05:07:21.915Z,96509.14
2018-03-17T05:09:49.664Z,96506.22
2018-03-17T05:12:17.365Z,96507.31
2018-03-17T05:14:45.035Z,96501.09
2018-03-17T05:17:12.732Z,96495.33
2018-03-17T05:19:40.405Z,96494.20
2018-03-17T05:22:08.132Z,96496.75
2018-03-17T05:24:35.814Z,96495.95
2018-03-17T05:27:03.493Z,96501.06
2018-03-17T05:29:31.202Z,96500.27
2018-03-17T05:31:58.876Z,96492.37
2018-03-17T05:34:27.227Z,96491.52
2018-03-17T05:36:54.930Z,96487.97
2018-03-17T05:39:22.742Z,96490.83
2018-03-17T05:41:50.423Z,96486.54
2018-03-17T05:44:18.092Z,96490.20
2018-03-17T05:46:45.789Z,96484.84
2018-03-17T05:49:13.492Z,96481.86
2018-03-17T05:51:41.197Z,96487.29
2018-03-17T05:54:08.871Z,96478.51
2018-03-17T05:56:36.604Z,96483.00
2018-03-17T05:59:04.274Z,96486.24
2018-03-17T06:01:31.958Z,96488.13
2018-03-17T06:03:59.665Z,96492.08
2018-03-17T06:06:27.336Z,96495.18
2018-03-17T06:08:55.025Z,96493.25
2018-03-17T06:11:22.705Z,96503.42
2018-03-17T06:13:50.728Z,96501.66
2018-03-17T06:16:18.400Z,96505.89
2018-03-17T06:18:46.086Z,96507.07
2018-03-17T06:21:13.778Z,96512.45
2018-03-17T06:23:41.457Z,96518.20
2018-03-17T06:26:09.161Z,96509.56
2018-03-17T06:28:36.840Z,96510.02
2018-03-17T06:31:04.660Z,96509.08
2018-03-17T06:33:32.340Z,96497.60
2018-03-17T06:36:00.012Z,96489.31
2018-03-17T06:38:27.721Z,96485.71
2018-03-17T06:40:55.408Z,96480.23
2018-03-17T06:43:23.114Z,96484.64
2018-03-17T06:45:50.783Z,96486.05
2018-03-17T06:48:18.504Z,96481.38
2018-03-17T06:50:46.181Z,96473.22
2018-03-17T06:53:13.866Z,96474.02
2018-03-17T06:55:41.589Z,96475.35
2018-03-17T06:58:09.266Z,96474.30
2018-03-17T07:00:37.039Z,96463.73
2018-03-17T07:03:04.665Z,96463.47
2018-03-17T07:05:32.731Z,96462.17
2018-03-17T07:08:00.434Z,96458.33
2018-03-17T07:10:28.108Z,96457.74
2018-03-17T07:12:55.799Z,96459.76
2018-03-17T07:15:23.512Z,96462.88
2018-03-17T07:17:51.210Z,96464.09
2018-03-17T07:20:18.888Z,96470.67
2018-03-17T07:22:46.800Z,96467.30
2018-03-17T07:25:14.492Z,96471.15
2018-03-17T07:27:42.160Z,96472.52
2018-03-17T07:30:09.854Z,96479.09
2018-03-17T07:32:37.550Z,96470.11
2018-03-17T07:35:05.252Z,96476.88
2018-03-17T07:37:32.940Z,96477.91
2018-03-17T07:40:00.838Z,96480.02
2018-03-17T07:42:28.597Z,96479.25
2018-03-17T07:44:56.259Z,96481.51
2018-03-17T07:47:23.955Z,96473.18
2018-03-17T07:49:51.628Z,96480.48
2018-03-17T07:52:19.343Z,96476.78
2018-03-17T07:54:47.021Z,96471.25
2018-03-17T07:57:15.099Z,96474.22
2018-03-17T07:59:42.775Z,96471.61
2018-03-17T08:02:10.453Z,96465.49
2018-03-17T08:04:38.147Z,96464.41
2018-03-17T08:07:05.828Z,96465.98
2018-03-17T08:09:33.547Z,96464.75
2018-03-17T08:12:01.243Z,96463.22
2018-03-17T08:14:29.357Z,96469.73
2018-03-17T08:16:57.035Z,96469.77
2018-03-17T08:19:24.718Z,96466.77
2018-03-17T08:21:52.415Z,96461.39
2018-03-17T08:24:20.080Z,96466.22
2018-03-17T08:26:47.776Z,96464.60
2018-03-17T08:29:15.462Z,96471.50
2018-03-17T08:31:43.401Z,96463.90
2018-03-17T08:34:11.083Z,96458.28
2018-03-17T08:36:38.772Z,96463.41
2018-03-17T08:39:06.493Z,96460.49
2018-03-17T08:41:34.169Z,96462.37
2018-03-17T08:44:02.000Z,96460.06
2018-03-17T08:46:29.684Z,96455.77
2018-03-17T08:48:57.355Z,96456.76
2018-03-17T08:51:25.058Z,96456.45
2018-03-17T08:53:52.743Z,96454.00
2018-03-17T08:56:20.471Z,96452.06
2018-03-17T08:58:48.169Z,96450.53
2018-03-17T09:01:15.839Z,96454.77
2018-03-17T09:03:43.556Z,96450.93
2018-03-17T09:06:11.252Z,96439.95
2018-03-17T09:08:38.949Z,96438.66
2018-03-17T09:11:06.623Z,96430.17
2018-03-17T09:13:34.644Z,96438.61
2018-03-17T09:16:02.310Z,96428.06
2018-03-17T09:18:29.992Z,96432.73
2018-03-17T09:20:57.704Z,96442.39
2018-03-17T09:23:25.407Z,96436.72
2018-03-17T09:25:53.192Z,96441.47
2018-03-17T09:28:20.865Z,96429.97
2018-03-17T09:30:48.603Z,96429.64
2018-03-17T09:33:16.276Z,96426.58
2018-03-17T09:35:43.949Z,96429.13
2018-03-17T09:38:11.666Z,96416.02
2018-03-17T09:40:39.356Z,96406.38
2018-03-17T09:43:07.063Z,96407.91
2018-03-17T09:45:34.743Z,96397.63
2018-03-17T09:48:02.658Z,96405.89
2018-03-17T09:50:30.323Z,96399.92
2018-03-17T09:52:58.006Z,96387.89
2018-03-17T09:55:25.701Z,96397.20
2018-03-17T09:57:53.381Z,96395.37
2018-03-17T10:00:21.084Z,96402.55
2018-03-17T10:02:48.771Z,96395.77
2018-03-17T10:05:16.491Z,96392.11
2018-03-17T10:07:44.156Z,96400.91
2018-03-17T10:10:11.843Z,96403.39
2018-03-17T10:12:39.553Z,96404.19
2018-03-17T10:15:07.224Z,96408.45
2018-03-17T10:17:34.922Z,96405.42
2018-03-17T10:20:02.599Z,96403.14
2018-03-17T10:22:30.354Z,96396.36
2018-03-17T10:24:58.031Z,96397.53
2018-03-17T10:27:25.704Z,96392.33
2018-03-17T10:29:53.410Z,96392.97
2018-03-17T10:32:21.080Z,96398.45
2018-03-17T10:34:48.784Z,96395.83
2018-03-17T10:37:16.463Z,96392.59
2018-03-17T10:39:44.435Z,96400.44
2018-03-17T10:42:12.086Z,96395.00
2018-03-17T10:44:39.784Z,96393.09
2018-03-17T10:47:07.485Z,96390.34
2018-03-17T10:49:35.168Z,96390.34
2018-03-17T10:52:02.871Z,96393.48
2018-03-17T10:54:30.573Z,96391.95
2018-03-17T10:56:58.311Z,96382.95
2018-03-17T10:59:26.032Z,96384.48
2018-03-17T11:01:53.730Z,96385.36
2018-03-17T11:04:21.532Z,96385.11
2018-03-17T11:06:49.215Z,96383.73
2018-03-17T11:09:16.914Z,96382.77
2018-03-17T11:11:44.600Z,96384.27
2018-03-17T11:14:12.407Z,96386.91
2018-03-17T11:16:40.104Z,96384.94
2018-03-17T11:19:07.788Z,96382.50
2018-03-17T11:21:35.501Z,96382.73
2018-03-17T11:24:03.201Z,96383.66
2018-03-17T11:26:30.901Z,96385.97
2018-03-17T11:28:58.605Z,96382.59
2018-03-17T11:31:26.528Z,96385.56
2018-03-17T11:33:54.231Z,96378.67
2018-03-17T11:36:21.908Z,96378.66
2018-03-17T11:38:49.620Z,96377.92
2018-03-17T11:41:17.318Z,96381.67
2018-03-17T11:43:45.054Z,96384.38
2018-03-17T11:46:12.733Z,96382.83
2018-03-17T11:48:40.424Z,96386.74
2018-03-17T11:51:08.198Z,96383.80
2018-03-17T11:53:35.866Z,96379.63
2018-03-17T11:56:03.857Z,96380.45
2018-03-17T11:58:31.532Z,96376.40
2018-03-17T12:00:59.208Z,96374.48
2018-03-17T12:03:26.909Z,96364.61
2018-03-17T12:05:54.587Z,96364.20
2018-03-17T12:08:22.274Z,96358.20
2018-03-17T12:10:49.948Z,96355.56
2018-03-17T12:13:17.709Z,96348.22
2018-03-17T12:15:45.377Z,96354.06
2018-03-17T12:18:13.044Z,96350.59
2018-03-17T12:20:40.759Z,96351.69
2018-03-17T12:23:08.437Z,96355.69
2018-03-17T12:25:36.141Z,96343.44
2018-03-17T12:28:03.818Z,96346.97
2018-03-17T12:30:31.537Z,96346.65
2018-03-17T12:32:59.247Z,96344.00
2018-03-17T12:35:26.952Z,96343.83
2018-03-17T12:37:54.782Z,96343.63
2018-03-17T12:40:22.452Z,96341.45
2018-03-17T12:42:50.152Z,96343.64
2018-03-17T12:45:17.848Z,96338.55
2018-03-17T12:47:45.880Z,96333.91
2018-03-17T12:50:13.590Z,96334.16
2018-03-17T12:52:41.257Z,96322.02
2018-03-17T12:55:08.948Z,96330.79
2018-03-17T12:57:36.620Z,96324.34
2018-03-17T13:00:04.317Z,96314.08
2018-03-17T13:02:31.988Z,96317.23
2018-03-17T13:04:59.955Z,96312.22
2018-03-17T13:07:27.636Z,96314.84
2018-03-17T13:09:55.324Z,96317.53
2018-03-17T13:12:23.028Z,96319.08
2018-03-17T13:14:50.705Z,96310.58
2018-03-17T13:17:18.419Z,96320.85
2018-03-17T13:19:46.089Z,96320.53
2018-03-17T13:22:13.812Z,96327.57
2018-03-17T13:24:41.488Z,96319.30
2018-03-17T13:27:21.202Z,96329.44
2018-03-17T13:29:48.896Z,96329.64
2018-03-17T13:32:28.716Z,96329.54
2018-03-17T13:34:56.382Z,96329.37
2018-03-17T13:37:40.367Z,96331.53
2018-03-17T13:40:19.905Z,96329.78
2018-03-17T13:42:48.039Z,96332.47
2018-03-17T13:45:15.713Z,96337.59
2018-03-17T13:47:43.393Z,96337.00
2018-03-17T13:50:11.121Z,96337.87
2018-03-17T13:52:38.791Z,96329.09
2018-03-17T13:55:06.486Z,96331.13
2018-03-17T13:57:34.154Z,96339.92
2018-03-17T14:00:02.268Z,96331.30
2018-03-17T14:02:29.931Z,96339.88
2018-03-17T14:04:57.913Z,96346.16
2018-03-17T14:07:25.619Z,96348.23
2018-03-17T14:09:53.293Z,96341.83
2018-03-17T14:12:20.984Z,96336.55
2018-03-17T14:14:48.651Z,96336.47
2018-03-17T14:17:16.645Z,96340.80
2018-03-17T14:19:44.313Z,96340.45
2018-03-17T14:22:12.001Z,96343.75
2018-03-17T14:24:39.695Z,96337.05
2018-03-17T14:27:07.373Z,96352.23
2018-03-17T14:29:35.060Z,96335.77
2018-03-17T14:32:02.730Z,96341.00
2018-03-17T14:34:30.679Z,96331.70
2018-03-17T14:36:58.345Z,96334.31
2018-03-17T14:39:26.016Z,96339.02
2018-03-17T14:41:53.711Z,96336.36
2018-03-17T14:44:21.389Z,96331.94
2018-03-17T14:46:49.116Z,96335.97
2018-03-17T14:49:16.780Z,96338.58
2018-03-17T14:51:44.500Z,96336.81
2018-03-17T14:54:12.167Z,96330.50
2018-03-17T14:56:39.842Z,96341.05
2018-03-17T14:59:07.545Z,96337.56
2018-03-17T15:01:35.229Z,96337.04
2018-03-17T15:04:02.941Z,96337.94
2018-03-17T15:06:30.615Z,96348.48
2018-03-17T15:08:58.464Z,96349.96
2018-03-17T15:11:26.140Z,96339.23
2018-03-17T15:13:53.812Z,96342.22
2018-03-17T15:16:21.502Z,96344.23
2018-03-17T15:18:49.199Z,96350.58
2018-03-17T15:21:16.899Z,96347.19
2018-03-17T15:23:44.564Z,96349.06
2018-03-17T15:26:12.254Z,96353.49
2018-03-17T15:28:39.932Z,96358.84
2018-03-17T15:31:07.776Z,96356.69
2018-03-17T15:33:35.440Z,96355.31
2018-03-17T15:36:03.115Z,96361.60
2018-03-17T15:38:30.807Z,96358.72
2018-03-17T15:40:58.472Z,96351.95
2018-03-17T15:43:26.155Z,96367.86
2018-03-17T15:45:53.862Z,96363.13
2018-03-17T15:48:21.776Z,96354.39
2018-03-17T15:50:49.485Z,96361.37
2018-03-17T15:53:17.155Z,96363.38
2018-03-17T15:55:44.836Z,96375.83
2018-03-17T15:58:12.503Z,96359.56
2018-03-17T16:00:40.201Z,96367.81
2018-03-17T16:03:07.860Z,96367.39
2018-03-17T16:05:35.541Z,96360.48
2018-03-17T16:08:03.227Z,96358.35
2018-03-17T16:10:30.894Z,96364.39
2018-03-17T16:12:59.015Z,96356.96
2018-03-17T16:15:26.681Z,96358.56
2018-03-17T16:17:54.380Z,96364.53
2018-03-17T16:20:22.076Z,96360.30
2018-03-17T16:22:49.748Z,96370.50
2018-03-17T16:25:17.440Z,96370.16
2018-03-17T16:27:45.197Z,96373.69
2018-03-17T16:30:13.363Z,96381.63
2018-03-17T16:32:41.037Z,96382.44
2018-03-17T16:35:08.709Z,96386.09
2018-03-17T16:37:36.407Z,96392.50
2018-03-17T16:40:04.081Z,96395.70
2018-03-17T16:42:31.779Z,96400.22
2018-03-17T16:44:59.444Z,96397.17
2018-03-17T16:47:27.310Z,96402.52
2018-03-17T16:49:54.980Z,96398.11
2018-03-17T16:52:22.666Z,96393.55
2018-03-17T16:54:50.360Z,96397.98
2018-03-17T16:57:18.024Z,96399.84
2018-03-17T16:59:45.723Z,96397.32
2018-03-17T17:02:13.393Z,96404.58
2018-03-17T17:04:41.121Z,96412.80
2018-03-17T17:07:08.789Z,96419.02
2018-03-17T17:09:36.465Z,96422.52
2018-03-17T17:12:04.149Z,96433.58
2018-03-17T17:14:31.826Z,96427.28
2018-03-17T17:16:59.516Z,96426.45
2018-03-17T17:19:27.176Z,96426.34
2018-03-17T17:21:55.131Z,96431.05
2018-03-17T17:24:22.797Z,96437.91
2018-03-17T17:26:50.473Z,96442.48
2018-03-17T17:29:18.163Z,96444.97
2018-03-17T17:31:45.830Z,96449.26
2018-03-17T17:34:13.537Z,96445.42
2018-03-17T17:36:41.224Z,96436.27
2018-03-17T17:39:09.035Z,96445.61
2018-03-17T17:41:36.708Z,96452.70
2018-03-17T17:44:04.372Z,96452.03
2018-03-17T17:46:32.052Z,96454.27
2018-03-17T17:48:59.713Z,96450.83
2018-03-17T17:51:27.416Z,96450.38
2018-03-17T17:53:55.317Z,96450.38
2018-03-17T17:56:24.410Z,96453.84
2018-03-17T17:58:52.086Z,96452.17
2018-03-17T18:01:19.756Z,96459.02
2018-03-17T18:03:47.483Z,96455.38
2018-03-17T18:06:15.170Z,96453.27
2018-03-17T18:08:42.855Z,96459.86
2018-03-17T18:11:10.516Z,96461.58
2018-03-17T18:13:38.228Z,96456.78
2018-03-17T18:16:05.906Z,96458.92
2018-03-17T18:18:33.608Z,96462.47
2018-03-17T18:21:01.306Z,96469.27
2018-03-17T18:23:28.971Z,96467.54
2018-03-17T18:25:57.064Z,96468.12
2018-03-17T18:28:24.724Z,96458.87
2018-03-17T18:30:52.389Z,96469.27
2018-03-17T18:33:20.080Z,96473.09
2018-03-17T18:35:47.746Z,96472.45
2018-03-17T18:38:15.696Z,96462.34
2018-03-17T18:40:43.361Z,96473.48
2018-03-17T18:43:11.163Z,96468.48
2018-03-17T18:45:38.856Z,96474.45
2018-03-17T18:48:06.612Z,96467.94
2018-03-17T18:50:34.297Z,96468.73
2018-03-17T18:53:02.139Z,96466.16
2018-03-17T18:55:29.855Z,96464.59
2018-03-17T18:57:57.520Z,96473.64
2018-03-17T19:00:25.184Z,96472.48
2018-03-17T19:02:52.864Z,96464.98
2018-03-17T19:05:20.540Z,96467.62
2018-03-17T19:07:48.230Z,96479.05
2018-03-17T19:10:15.893Z,96489.06
2018-03-17T19:12:43.884Z,96484.31
2018-03-17T19:15:11.576Z,96489.36
2018-03-17T19:17:39.373Z,96490.95
2018-03-17T19:20:07.061Z,96483.78
2018-03-17T19:22:34.755Z,96487.13
2018-03-17T19:25:02.442Z,96490.91
2018-03-17T19:27:30.114Z,96488.52
2018-03-17T19:29:58.154Z,96492.72
2018-03-17T19:32:25.816Z,96493.03
2018-03-17T19:34:53.484Z,96496.53
2018-03-17T19:37:21.176Z,96493.83
2018-03-17T19:39:48.844Z,96502.45
2018-03-17T19:42:16.532Z,96496.67
2018-03-17T19:44:44.196Z,96502.39
2018-03-17T19:47:11.908Z,96496.77
2018-03-17T19:49:39.661Z,96499.50
2018-03-17T19:52:07.316Z,96500.14
2018-03-17T19:54:35.016Z,96499.22
2018-03-17T19:57:02.692Z,96511.38
2018-03-17T19:59:30.373Z,96503.88
2018-03-17T20:01:58.036Z,96505.05
2018-03-17T20:04:25.731Z,96496.01
2018-03-17T20:06:53.404Z,96502.13
2018-03-17T20:09:21.108Z,96503.19
2018-03-17T20:11:48.778Z,96501.23
2018-03-17T20:14:16.487Z,96506.64
2018-03-17T20:16:44.151Z,96509.42
2018-03-17T20:19:11.873Z,96499.05
2018-03-17T20:21:39.555Z,96507.30
2018-03-17T20:24:07.241Z,96504.65
2018-03-17T20:26:34.927Z,96509.69
2018-03-17T20:29:02.602Z,96507.95
2018-03-17T20:31:30.975Z,96504.66
2018-03-17T20:33:58.644Z,96517.78
2018-03-17T20:36:26.336Z,96500.14
2018-03-17T20:38:54.279Z,96501.45
2018-03-17T20:41:21.994Z,96509.66
2018-03-17T20:43:49.660Z,96507.97
2018-03-17T20:46:17.347Z,96514.97
2018-03-17T20:48:45.016Z,96510.49
2018-03-17T20:51:12.711Z,96510.89
2018-03-17T20:53:40.372Z,96512.72
2018-03-17T20:56:08.274Z,96511.80
2018-03-17T20:58:35.943Z,96507.94
2018-03-17T21:01:03.620Z,96510.15
2018-03-17T21:03:31.306Z,96510.42
2018-03-17T21:05:58.973Z,96509.01
2018-03-17T21:08:26.668Z,96509.80
2018-03-17T21:10:54.339Z,96507.95
2018-03-17T21:13:22.375Z,96510.20
2018-03-17T21:15:50.041Z,96520.05
2018-03-17T21:18:17.764Z,96515.77
2018-03-17T21:20:45.431Z,96511.53
2018-03-17T21:23:13.105Z,96521.62
2018-03-17T21:25:40.796Z,96514.98
2018-03-17T21:28:08.473Z,96509.31
2018-03-17T21:30:36.157Z,96515.94
2018-03-17T21:33:03.827Z,96515.27
2018-03-17T21:35:31.539Z,96521.06
2018-03-17T21:37:59.260Z,96510.35
2018-03-17T21:40:26.935Z,96510.36
2018-03-17T21:42:54.623Z,96511.14
2018-03-17T21:45:22.297Z,96518.16
2018-03-17T21:47:49.985Z,96516.05
2018-03-17T21:50:17.664Z,96513.14
2018-03-17T21:52:45.733Z,96516.80
2018-03-17T21:55:13.425Z,96512.11
2018-03-17T21:57:41.116Z,96514.69
2018-03-17T22:00:08.814Z,96513.03
2018-03-17T22:02:36.488Z,96512.66
2018-03-17T22:05:04.190Z,96519.05
2018-03-17T22:07:31.860Z,96518.81
2018-03-17T22:09:59.564Z,96513.44
2018-03-17T22:12:27.236Z,96510.52
2018-03-17T22:14:54.965Z,96507.98
2018-03-17T22:17:22.764Z,96511.14
2018-03-17T22:19:50.435Z,96516.56
2018-03-17T22:22:18.155Z,96512.64
2018-03-17T22:24:45.827Z,96510.87
2018-03-17T22:27:13.524Z,96517.86
2018-03-17T22:29:41.203Z,96509.73
2018-03-17T22:32:09.148Z,96521.73
2018-03-17T22:34:36.828Z,96515.95
2018-03-17T22:37:04.488Z,96516.22
2018-03-17T22:39:32.194Z,96517.99
2018-03-17T22:41:59.879Z,96512.54
2018-03-17T22:44:27.576Z,96509.92
2018-03-17T22:46:55.255Z,96510.08
2018-03-17T22:49:23.423Z,96504.73
2018-03-17T22:51:51.090Z,96504.78
2018-03-17T22:54:18.770Z,96504.23
2018-03-17T22:56:46.470Z,96504.30
2018-03-17T22:59:14.149Z,96498.59
2018-03-17T23:01:41.839Z,96503.61
2018-03-17T23:04:09.522Z,96509.50
2018-03-17T23:06:37.329Z,96499.15
2018-03-17T23:09:05.341Z,96503.94
2018-03-17T23:11:33.052Z,96501.30
2018-03-17T23:14:00.757Z,96504.60
2018-03-17T23:16:28.429Z,96505.63
2018-03-17T23:18:56.170Z,96504.58
2018-03-17T23:21:23.842Z,96500.30
2018-03-17T23:23:51.566Z,96512.57
2018-03-17T23:26:19.261Z,96500.16
2018-03-17T23:28:46.953Z,96506.98
2018-03-17T23:31:14.650Z,96503.49
2018-03-17T23:33:42.341Z,96503.25
2018-03-17T23:36:10.052Z,96508.34
2018-03-17T23:38:37.728Z,96505.10
2018-03-17T23:41:05.745Z,96513.55
2018-03-17T23:43:33.450Z,96506.30
2018-03-17T23:46:01.128Z,96502.62
2018-03-17T23:48:28.844Z,96508.30
2018-03-17T23:50:56.528Z,96506.71
2018-03-17T23:53:24.235Z,96500.54
2018-03-17T23:55:52.027Z,96509.03
2018-03-17T23:58:19.999Z,96504.02
